createdAt,value
2023-05-24T00:00:19.348Z,5.13
2023-05-24T00:01:25.752Z,5.10
2023-05-24T00:02:27.406Z,5.10
2023-05-24T00:03:31.074Z,5.70
2023-05-24T00:04:33.230Z,5.50
2023-05-24T00:05:37.968Z,4.60
2023-05-24T00:06:39.650Z,5.50
2023-05-24T00:07:41.226Z,4.20
2023-05-24T00:08:42.738Z,4.93
2023-05-24T00:09:44.611Z,5.07
2023-05-24T00:10:46.499Z,4.43
2023-05-24T00:11:48.029Z,4.77
2023-05-24T00:12:49.499Z,4.73
2023-05-24T00:13:51.110Z,4.50
2023-05-24T00:14:52.634Z,4.47
2023-05-24T00:15:54.288Z,4.80
2023-05-24T00:16:55.989Z,4.67
2023-05-24T00:17:57.721Z,4.70
2023-05-24T00:18:59.475Z,4.40
2023-05-24T00:20:01.099Z,4.80
2023-05-24T00:21:02.764Z,4.60
2023-05-24T00:22:04.447Z,4.70
2023-05-24T00:23:06.159Z,4.40
2023-05-24T00:24:07.966Z,5.53
2023-05-24T00:25:09.695Z,4.27
2023-05-24T00:26:11.695Z,4.00
2023-05-24T00:27:14.146Z,4.50
2023-05-24T00:28:15.772Z,4.60
2023-05-24T00:29:17.292Z,5.40
2023-05-24T00:30:18.852Z,5.80
2023-05-24T00:31:20.450Z,5.00
2023-05-24T00:32:22.102Z,4.47
2023-05-24T00:33:24.105Z,4.33
2023-05-24T00:34:25.781Z,3.90
2023-05-24T00:35:27.330Z,4.90
2023-05-24T00:36:28.912Z,5.10
2023-05-24T00:37:30.482Z,4.23
2023-05-24T00:38:31.971Z,4.73
2023-05-24T00:39:33.550Z,4.50
2023-05-24T00:40:35.173Z,4.90
2023-05-24T00:41:36.850Z,5.30
2023-05-24T00:42:38.811Z,4.53
2023-05-24T00:43:43.249Z,5.30
2023-05-24T00:44:44.835Z,4.40
2023-05-24T00:45:46.617Z,4.20
2023-05-24T00:46:48.451Z,5.20
2023-05-24T00:47:50.232Z,5.23
2023-05-24T00:48:51.847Z,5.00
2023-05-24T00:49:53.483Z,4.70
2023-05-24T00:50:55.072Z,4.80
2023-05-24T00:51:56.637Z,5.03
2023-05-24T00:53:00.471Z,4.40
2023-05-24T00:54:02.144Z,4.83
2023-05-24T00:55:03.857Z,4.27
2023-05-24T00:56:05.771Z,4.50
2023-05-24T00:57:07.495Z,5.10
2023-05-24T00:58:09.132Z,5.20
2023-05-24T00:59:10.839Z,4.87
2023-05-24T01:00:12.954Z,4.50
2023-05-24T01:01:14.832Z,5.20
2023-05-24T01:02:17.202Z,4.33
2023-05-24T01:03:19.385Z,5.37
2023-05-24T01:04:23.071Z,5.00
2023-05-24T01:05:25.159Z,6.27
2023-05-24T01:06:28.133Z,5.67
2023-05-24T01:07:53.486Z,5.13
2023-05-24T01:09:07.748Z,5.33
2023-05-24T01:10:16.924Z,5.20
2023-05-24T01:11:24.860Z,4.93
2023-05-24T01:12:56.418Z,6.17
2023-05-24T01:14:01.172Z,6.53
2023-05-24T01:15:18.059Z,5.67
2023-05-24T01:16:31.813Z,5.30
2023-05-24T01:17:42.785Z,4.87
2023-05-24T01:18:47.129Z,5.70
2023-05-24T01:19:54.376Z,5.57
2023-05-24T01:21:19.305Z,4.17
2023-05-24T01:22:23.910Z,4.83
2023-05-24T01:23:41.883Z,4.57
2023-05-24T01:25:02.379Z,4.07
2023-05-24T01:26:24.267Z,5.13
2023-05-24T01:27:26.877Z,5.13
2023-05-24T01:28:28.536Z,5.53
2023-05-24T01:29:31.415Z,5.30
2023-05-24T01:30:33.343Z,5.83
2023-05-24T01:31:35.296Z,5.47
2023-05-24T01:32:36.931Z,5.10
2023-05-24T01:33:44.892Z,5.40
2023-05-24T01:34:46.538Z,6.43
2023-05-24T01:35:48.085Z,6.17
2023-05-24T01:36:49.579Z,6.20
2023-05-24T01:37:51.056Z,6.73
2023-05-24T01:38:52.740Z,7.27
2023-05-24T01:39:54.357Z,6.03
2023-05-24T01:40:59.285Z,5.90
2023-05-24T01:42:09.091Z,5.27
2023-05-24T01:43:16.043Z,6.30
2023-05-24T01:44:27.834Z,5.00
2023-05-24T01:45:39.643Z,5.17
2023-05-24T01:46:41.254Z,5.10
2023-05-24T01:47:55.062Z,4.70
2023-05-24T01:49:03.458Z,5.13
2023-05-24T01:50:14.738Z,5.50
2023-05-24T01:51:19.215Z,5.23
2023-05-24T01:52:22.770Z,5.13
2023-05-24T01:53:26.431Z,4.93
2023-05-24T01:54:31.665Z,5.20
2023-05-24T01:55:34.653Z,5.90
2023-05-24T01:56:36.797Z,5.97
2023-05-24T01:57:39.087Z,5.63
2023-05-24T01:58:45.625Z,6.23
2023-05-24T01:59:47.658Z,4.73
2023-05-24T02:00:49.804Z,6.27
2023-05-24T02:01:51.653Z,5.13
2023-05-24T02:02:53.362Z,5.10
2023-05-24T02:03:55.513Z,5.40
2023-05-24T02:04:57.184Z,5.53
2023-05-24T02:05:58.682Z,4.97
2023-05-24T02:07:00.539Z,4.90
2023-05-24T02:08:02.161Z,4.80
2023-05-24T02:09:03.886Z,4.70
2023-05-24T02:10:05.760Z,5.07
2023-05-24T02:11:07.406Z,5.17
2023-05-24T02:12:09.328Z,5.67
2023-05-24T02:13:10.996Z,5.97
2023-05-24T02:14:13.498Z,6.10
2023-05-24T02:15:15.192Z,7.57
2023-05-24T02:16:18.293Z,6.70
2023-05-24T02:17:19.909Z,6.47
2023-05-24T02:18:22.750Z,5.50
2023-05-24T02:19:24.912Z,6.07
2023-05-24T02:20:26.518Z,6.60
2023-05-24T02:21:28.879Z,6.53
2023-05-24T02:22:30.401Z,7.00
2023-05-24T02:23:31.972Z,6.10
2023-05-24T02:24:34.403Z,6.47
2023-05-24T02:25:35.993Z,5.00
2023-05-24T02:26:37.845Z,5.67
2023-05-24T02:27:39.445Z,5.27
2023-05-24T02:28:41.460Z,4.70
2023-05-24T02:29:42.989Z,5.13
2023-05-24T02:30:44.905Z,5.40
2023-05-24T02:31:46.795Z,4.93
2023-05-24T02:32:48.547Z,5.40
2023-05-24T02:33:50.140Z,5.33
2023-05-24T02:34:51.772Z,5.00
2023-05-24T02:35:53.427Z,4.90
2023-05-24T02:36:55.925Z,5.13
2023-05-24T02:37:58.738Z,5.40
2023-05-24T02:39:00.704Z,5.43
2023-05-24T02:40:02.348Z,5.07
2023-05-24T02:41:04.068Z,4.83
2023-05-24T02:42:05.964Z,5.43
2023-05-24T02:43:07.801Z,5.40
2023-05-24T02:44:09.332Z,5.30
2023-05-24T02:45:11.214Z,7.03
2023-05-24T02:46:13.094Z,5.33
2023-05-24T02:47:14.957Z,5.03
2023-05-24T02:48:17.102Z,5.20
2023-05-24T02:49:18.706Z,4.13
2023-05-24T02:50:20.453Z,4.63
2023-05-24T02:51:21.938Z,5.17
2023-05-24T02:52:24.104Z,4.77
2023-05-24T02:53:25.617Z,4.83
2023-05-24T02:54:27.282Z,5.23
2023-05-24T02:55:29.246Z,5.97
2023-05-24T02:56:30.731Z,4.93
2023-05-24T02:57:34.265Z,4.57
2023-05-24T02:58:41.099Z,5.00
2023-05-24T02:59:43.505Z,5.83
2023-05-24T03:00:45.070Z,6.67
2023-05-24T03:01:46.887Z,5.80
2023-05-24T03:02:50.956Z,5.93
2023-05-24T03:03:52.860Z,5.03
2023-05-24T03:04:54.545Z,4.70
2023-05-24T03:05:56.115Z,5.43
2023-05-24T03:06:57.692Z,5.23
2023-05-24T03:07:59.185Z,5.13
2023-05-24T03:09:01.081Z,5.07
2023-05-24T03:10:02.665Z,5.30
2023-05-24T03:11:04.244Z,4.47
2023-05-24T03:12:06.190Z,5.17
2023-05-24T03:13:07.684Z,5.40
2023-05-24T03:14:11.028Z,5.20
2023-05-24T03:15:12.654Z,4.33
2023-05-24T03:16:14.320Z,4.80
2023-05-24T03:17:16.342Z,4.87
2023-05-24T03:18:18.012Z,5.40
2023-05-24T03:19:19.653Z,5.13
2023-05-24T03:20:21.624Z,5.60
2023-05-24T03:21:23.575Z,4.83
2023-05-24T03:22:25.387Z,5.07
2023-05-24T03:23:27.015Z,5.50
2023-05-24T03:24:28.630Z,5.93
2023-05-24T03:25:30.119Z,5.50
2023-05-24T03:26:31.660Z,5.20
2023-05-24T03:27:33.365Z,5.30
2023-05-24T03:28:35.738Z,4.70
2023-05-24T03:29:37.380Z,5.37
2023-05-24T03:30:38.876Z,4.47
2023-05-24T03:31:40.659Z,5.10
2023-05-24T03:32:42.320Z,4.40
2023-05-24T03:33:44.060Z,4.80
2023-05-24T03:34:45.610Z,5.40
2023-05-24T03:35:47.289Z,5.40
2023-05-24T03:36:48.872Z,6.23
2023-05-24T03:37:50.455Z,6.00
2023-05-24T03:38:51.934Z,5.97
2023-05-24T03:39:53.650Z,6.50
2023-05-24T03:40:55.144Z,6.60
2023-05-24T03:41:56.813Z,5.30
2023-05-24T03:42:58.311Z,4.47
2023-05-24T03:44:00.040Z,5.43
2023-05-24T03:45:01.600Z,5.93
2023-05-24T03:46:03.309Z,6.30
2023-05-24T03:47:05.038Z,5.80
2023-05-24T03:48:06.801Z,5.80
2023-05-24T03:49:08.450Z,7.10
2023-05-24T03:50:10.245Z,6.70
2023-05-24T03:51:11.926Z,5.33
2023-05-24T03:52:13.658Z,6.13
2023-05-24T03:53:15.348Z,6.27
2023-05-24T03:54:18.098Z,5.40
2023-05-24T03:55:19.725Z,4.97
2023-05-24T03:56:22.381Z,5.10
2023-05-24T03:57:23.982Z,5.10
2023-05-24T03:58:25.606Z,5.30
2023-05-24T03:59:27.226Z,5.50
2023-05-24T04:00:28.835Z,6.87
2023-05-24T04:01:34.454Z,5.00
2023-05-24T04:02:39.394Z,5.80
2023-05-24T04:03:41.536Z,6.20
2023-05-24T04:04:43.244Z,5.93
2023-05-24T04:05:45.085Z,6.93
2023-05-24T04:06:47.977Z,6.30
2023-05-24T04:07:49.669Z,6.30
2023-05-24T04:08:52.774Z,6.87
2023-05-24T04:09:54.466Z,6.70
2023-05-24T04:10:56.089Z,5.67
2023-05-24T04:11:57.749Z,6.50
2023-05-24T04:13:00.712Z,6.00
2023-05-24T04:14:02.957Z,6.00
2023-05-24T04:15:04.641Z,5.20
2023-05-24T04:16:06.287Z,6.20
2023-05-24T04:17:08.681Z,6.60
2023-05-24T04:18:10.445Z,6.47
2023-05-24T04:19:12.251Z,5.83
2023-05-24T04:20:13.872Z,5.90
2023-05-24T04:21:15.543Z,6.00
2023-05-24T04:22:18.592Z,5.53
2023-05-24T04:23:20.493Z,5.80
2023-05-24T04:24:22.032Z,6.17
2023-05-24T04:25:23.702Z,5.20
2023-05-24T04:26:25.318Z,5.33
2023-05-24T04:27:27.121Z,5.50
2023-05-24T04:28:28.807Z,5.40
2023-05-24T04:29:33.856Z,5.40
2023-05-24T04:30:36.859Z,4.90
2023-05-24T04:31:38.517Z,6.37
2023-05-24T04:32:40.769Z,6.33
2023-05-24T04:33:42.832Z,6.23
2023-05-24T04:34:45.989Z,6.23
2023-05-24T04:35:47.814Z,6.10
2023-05-24T04:36:50.678Z,5.43
2023-05-24T04:37:52.503Z,5.67
2023-05-24T04:38:56.122Z,5.30
2023-05-24T04:39:57.782Z,5.40
2023-05-24T04:40:59.496Z,5.77
2023-05-24T04:42:01.204Z,5.47
2023-05-24T04:43:02.770Z,5.73
2023-05-24T04:44:04.523Z,5.37
2023-05-24T04:45:07.079Z,5.03
2023-05-24T04:46:09.483Z,5.87
2023-05-24T04:47:12.875Z,5.63
2023-05-24T04:48:14.459Z,4.60
2023-05-24T04:49:16.468Z,6.00
2023-05-24T04:50:18.505Z,5.57
2023-05-24T04:51:20.862Z,4.80
2023-05-24T04:52:22.739Z,5.17
2023-05-24T04:53:24.677Z,5.30
2023-05-24T04:54:26.270Z,4.97
2023-05-24T04:55:27.944Z,5.20
2023-05-24T04:56:29.458Z,5.10
2023-05-24T04:57:31.028Z,5.30
2023-05-24T04:58:33.368Z,6.27
2023-05-24T04:59:34.997Z,6.20
2023-05-24T05:00:36.620Z,4.97
2023-05-24T05:01:39.094Z,5.57
2023-05-24T05:02:40.881Z,4.97
2023-05-24T05:03:45.093Z,6.40
2023-05-24T05:04:46.809Z,5.10
2023-05-24T05:05:48.261Z,5.47
2023-05-24T05:06:50.105Z,5.70
2023-05-24T05:07:51.690Z,5.37
2023-05-24T05:08:53.352Z,6.87
2023-05-24T05:09:54.952Z,5.63
2023-05-24T05:10:56.664Z,5.90
2023-05-24T05:11:58.550Z,6.23
2023-05-24T05:13:00.068Z,5.50
2023-05-24T05:14:01.759Z,5.30
2023-05-24T05:15:03.355Z,5.03
2023-05-24T05:16:05.465Z,5.80
2023-05-24T05:17:07.184Z,5.30
2023-05-24T05:18:08.795Z,6.47
2023-05-24T05:19:10.503Z,5.40
2023-05-24T05:20:12.294Z,6.33
2023-05-24T05:21:13.894Z,6.80
2023-05-24T05:22:16.721Z,5.63
2023-05-24T05:23:18.440Z,6.17
2023-05-24T05:24:20.132Z,5.60
2023-05-24T05:25:21.854Z,5.83
2023-05-24T05:26:23.443Z,5.00
2023-05-24T05:27:25.054Z,5.70
2023-05-24T05:28:26.679Z,5.20
2023-05-24T05:29:28.419Z,5.30
2023-05-24T05:30:30.136Z,5.13
2023-05-24T05:31:31.740Z,4.90
2023-05-24T05:32:33.330Z,6.13
2023-05-24T05:33:34.974Z,4.80
2023-05-24T05:34:36.502Z,4.87
2023-05-24T05:35:38.187Z,5.93
2023-05-24T05:36:40.979Z,5.27
2023-05-24T05:37:42.566Z,5.07
2023-05-24T05:38:44.113Z,5.30
2023-05-24T05:39:45.740Z,5.60
2023-05-24T05:40:47.480Z,4.93
2023-05-24T05:41:49.015Z,5.17
2023-05-24T05:42:50.969Z,5.33
2023-05-24T05:43:52.543Z,6.20
2023-05-24T05:44:54.115Z,6.00
2023-05-24T05:45:56.766Z,6.53
2023-05-24T05:46:58.428Z,5.03
2023-05-24T05:48:00.210Z,6.27
2023-05-24T05:49:01.855Z,6.17
2023-05-24T05:50:03.638Z,5.17
2023-05-24T05:51:05.277Z,6.07
2023-05-24T05:52:06.937Z,4.70
2023-05-24T05:53:08.563Z,6.40
2023-05-24T05:54:14.564Z,5.30
2023-05-24T05:55:16.176Z,4.93
2023-05-24T05:56:18.128Z,6.57
2023-05-24T05:57:24.080Z,5.87
2023-05-24T05:58:25.591Z,5.87
2023-05-24T05:59:27.189Z,5.30
2023-05-24T06:00:28.855Z,5.43
2023-05-24T06:01:30.492Z,5.00
2023-05-24T06:02:32.125Z,5.90
2023-05-24T06:03:33.977Z,5.70
2023-05-24T06:04:35.915Z,5.60
2023-05-24T06:05:37.495Z,5.20
2023-05-24T06:06:39.114Z,5.17
2023-05-24T06:07:40.780Z,5.20
2023-05-24T06:08:42.458Z,4.93
2023-05-24T06:09:44.133Z,5.63
2023-05-24T06:10:45.808Z,5.30
2023-05-24T06:11:47.468Z,6.33
2023-05-24T06:12:49.062Z,5.30
2023-05-24T06:13:50.770Z,5.53
2023-05-24T06:14:52.501Z,6.20
2023-05-24T06:15:54.301Z,5.63
2023-05-24T06:16:58.080Z,6.43
2023-05-24T06:18:02.356Z,6.67
2023-05-24T06:19:06.435Z,5.50
2023-05-24T06:20:15.541Z,6.60
2023-05-24T06:21:17.503Z,5.73
2023-05-24T06:22:19.538Z,5.57
2023-05-24T06:23:21.639Z,6.37
2023-05-24T06:24:23.368Z,5.80
2023-05-24T06:25:24.910Z,7.00
2023-05-24T06:26:27.151Z,5.57
2023-05-24T06:27:28.764Z,5.23
2023-05-24T06:28:30.366Z,5.17
2023-05-24T06:29:32.061Z,5.93
2023-05-24T06:30:33.868Z,5.90
2023-05-24T06:31:35.612Z,6.93
2023-05-24T06:32:37.426Z,6.00
2023-05-24T06:33:39.861Z,5.33
2023-05-24T06:34:44.535Z,5.73
2023-05-24T06:35:46.286Z,5.70
2023-05-24T06:36:48.776Z,4.80
2023-05-24T06:37:50.795Z,5.17
2023-05-24T06:38:52.346Z,5.10
2023-05-24T06:39:53.896Z,6.10
2023-05-24T06:40:55.548Z,6.70
2023-05-24T06:41:57.583Z,5.77
2023-05-24T06:42:59.177Z,4.60
2023-05-24T06:44:01.132Z,5.53
2023-05-24T06:45:03.562Z,5.40
2023-05-24T06:46:05.116Z,5.60
2023-05-24T06:47:06.997Z,4.90
2023-05-24T06:48:09.269Z,5.07
2023-05-24T06:49:12.081Z,6.00
2023-05-24T06:50:13.738Z,5.20
2023-05-24T06:51:15.322Z,5.53
2023-05-24T06:52:16.799Z,5.43
2023-05-24T06:53:18.416Z,4.90
2023-05-24T06:54:20.674Z,4.97
2023-05-24T06:55:22.339Z,5.43
2023-05-24T06:56:23.939Z,5.27
2023-05-24T06:57:25.626Z,5.23
2023-05-24T06:58:27.335Z,5.03
2023-05-24T06:59:28.899Z,4.50
2023-05-24T07:00:30.427Z,5.17
2023-05-24T07:01:32.756Z,4.73
2023-05-24T07:02:34.374Z,4.00
2023-05-24T07:03:36.277Z,4.60
2023-05-24T07:04:37.879Z,5.00
2023-05-24T07:05:39.734Z,4.47
2023-05-24T07:06:41.593Z,4.97
2023-05-24T07:09:02.603Z,4.37
2023-05-24T07:10:04.395Z,5.67
2023-05-24T07:11:06.407Z,4.87
2023-05-24T07:12:09.275Z,4.77
2023-05-24T07:13:13.695Z,4.80
2023-05-24T07:14:15.357Z,5.53
2023-05-24T07:15:16.893Z,5.27
2023-05-24T07:16:18.564Z,5.33
2023-05-24T07:17:21.280Z,4.90
2023-05-24T07:18:22.810Z,4.60
2023-05-24T07:19:28.934Z,4.40
2023-05-24T07:20:30.854Z,4.73
2023-05-24T07:21:32.462Z,5.80
2023-05-24T07:22:34.106Z,4.77
2023-05-24T07:23:36.997Z,4.93
2023-05-24T07:24:39.015Z,4.93
2023-05-24T07:25:40.604Z,6.03
2023-05-24T07:26:42.198Z,5.23
2023-05-24T07:27:43.745Z,5.50
2023-05-24T07:28:45.271Z,4.77
2023-05-24T07:29:48.354Z,5.10
2023-05-24T07:30:51.230Z,5.50
2023-05-24T07:31:55.991Z,5.43
2023-05-24T07:32:57.633Z,5.20
2023-05-24T07:33:59.214Z,5.30
2023-05-24T07:35:00.937Z,5.40
2023-05-24T07:36:03.027Z,4.67
2023-05-24T07:37:04.763Z,4.90
2023-05-24T07:38:07.042Z,4.53
2023-05-24T07:39:10.254Z,4.47
2023-05-24T07:40:12.391Z,5.90
2023-05-24T07:41:14.275Z,4.87
2023-05-24T07:42:15.971Z,4.70
2023-05-24T07:43:17.489Z,4.67
2023-05-24T07:44:22.456Z,5.20
2023-05-24T07:45:24.075Z,4.40
2023-05-24T07:46:25.744Z,4.70
2023-05-24T07:47:27.802Z,4.73
2023-05-24T07:48:29.415Z,6.00
2023-05-24T07:49:31.183Z,5.30
2023-05-24T07:50:33.369Z,5.70
2023-05-24T07:51:34.998Z,5.87
2023-05-24T07:52:36.818Z,5.33
2023-05-24T07:53:38.417Z,5.03
2023-05-24T07:54:40.295Z,4.00
2023-05-24T07:55:42.225Z,4.57
2023-05-24T07:56:44.612Z,4.43
2023-05-24T07:57:46.813Z,5.43
2023-05-24T07:58:49.322Z,4.50
2023-05-24T07:59:50.896Z,5.40
2023-05-24T08:00:52.484Z,4.97
2023-05-24T08:01:54.370Z,4.90
2023-05-24T08:02:56.634Z,5.30
2023-05-24T08:03:58.669Z,5.20
2023-05-24T08:05:00.534Z,5.10
2023-05-24T08:06:02.892Z,5.00
2023-05-24T08:07:05.954Z,4.77
2023-05-24T08:08:09.591Z,4.87
2023-05-24T08:09:11.356Z,5.33
2023-05-24T08:10:13.882Z,4.50
2023-05-24T08:11:16.001Z,5.07
2023-05-24T08:12:17.533Z,5.27
2023-05-24T08:13:19.142Z,5.43
2023-05-24T08:14:21.122Z,4.93
2023-05-24T08:15:22.883Z,4.93
2023-05-24T08:16:24.467Z,5.20
2023-05-24T08:17:26.883Z,4.47
2023-05-24T08:18:28.502Z,4.60
2023-05-24T08:19:35.705Z,4.67
2023-05-24T08:20:37.631Z,5.50
2023-05-24T08:21:39.391Z,6.07
2023-05-24T08:22:41.318Z,5.13
2023-05-24T08:23:42.918Z,5.00
2023-05-24T08:24:44.489Z,5.33
2023-05-24T08:25:46.154Z,4.90
2023-05-24T08:26:47.808Z,4.80
2023-05-24T08:27:49.474Z,4.87
2023-05-24T08:28:51.613Z,5.20
2023-05-24T08:29:55.517Z,4.10
2023-05-24T08:30:59.443Z,4.90
2023-05-24T08:32:01.163Z,4.73
2023-05-24T08:33:03.004Z,4.20
2023-05-24T08:34:04.558Z,4.60
2023-05-24T08:35:18.617Z,4.20
2023-05-24T08:36:22.381Z,4.60
2023-05-24T08:37:24.077Z,4.90
2023-05-24T08:38:25.808Z,4.47
2023-05-24T08:39:27.490Z,4.40
2023-05-24T08:40:29.202Z,4.80
2023-05-24T08:41:33.150Z,4.00
2023-05-24T08:42:35.129Z,4.77
2023-05-24T08:43:37.169Z,4.60
2023-05-24T08:44:47.378Z,4.77
2023-05-24T08:45:49.765Z,4.87
2023-05-24T08:46:51.494Z,4.03
2023-05-24T08:47:54.334Z,5.10
2023-05-24T08:48:57.825Z,4.30
2023-05-24T08:49:59.670Z,5.13
2023-05-24T08:51:01.268Z,5.20
2023-05-24T08:52:04.005Z,5.30
2023-05-24T08:53:06.782Z,4.77
2023-05-24T08:54:09.848Z,4.83
2023-05-24T08:55:12.028Z,5.17
2023-05-24T08:56:17.264Z,5.17
2023-05-24T08:57:19.175Z,5.67
2023-05-24T08:58:20.912Z,5.63
2023-05-24T08:59:23.668Z,4.90
2023-05-24T09:00:25.550Z,5.67
2023-05-24T09:01:29.749Z,5.30
2023-05-24T09:02:32.830Z,5.33
2023-05-24T09:03:36.040Z,4.20
2023-05-24T09:04:39.501Z,4.00
2023-05-24T09:05:41.933Z,4.47
2023-05-24T09:06:43.975Z,5.43
2023-05-24T09:07:46.030Z,6.17
2023-05-24T09:08:50.149Z,4.90
2023-05-24T09:10:01.380Z,4.77
2023-05-24T09:11:03.664Z,5.07
2023-05-24T09:12:05.911Z,4.40
2023-05-24T09:13:07.820Z,5.67
2023-05-24T09:14:09.662Z,4.90
2023-05-24T09:15:11.624Z,4.60
2023-05-24T09:16:13.576Z,5.20
2023-05-24T09:17:15.977Z,4.90
2023-05-24T09:18:17.688Z,5.20
2023-05-24T09:19:19.930Z,5.50
2023-05-24T09:20:22.431Z,5.23
2023-05-24T09:21:25.135Z,5.23
2023-05-24T09:22:28.526Z,5.50
2023-05-24T09:23:30.399Z,4.80
2023-05-24T09:24:31.994Z,4.67
2023-05-24T09:25:33.625Z,5.43
2023-05-24T09:26:36.653Z,4.67
2023-05-24T09:27:39.063Z,5.83
2023-05-24T09:28:42.146Z,4.80
2023-05-24T09:29:46.245Z,4.70
2023-05-24T09:31:03.314Z,5.57
2023-05-24T09:32:07.988Z,5.33
2023-05-24T09:33:09.627Z,5.60
2023-05-24T09:34:14.895Z,4.57
2023-05-24T09:35:16.650Z,4.60
2023-05-24T09:36:18.360Z,5.37
2023-05-24T09:37:26.637Z,4.70
2023-05-24T09:38:30.764Z,5.00
2023-05-24T09:39:32.367Z,5.00
2023-05-24T09:40:33.932Z,5.10
2023-05-24T09:41:36.404Z,5.10
2023-05-24T09:42:38.467Z,5.10
2023-05-24T09:43:47.844Z,5.40
2023-05-24T09:44:50.044Z,5.20
2023-05-24T09:45:54.157Z,5.30
2023-05-24T09:47:02.015Z,4.80
2023-05-24T09:48:04.048Z,4.80
2023-05-24T09:49:06.943Z,4.37
2023-05-24T09:50:15.493Z,4.50
2023-05-24T09:51:19.120Z,4.57
2023-05-24T09:52:22.026Z,5.00
2023-05-24T09:53:23.944Z,4.40
2023-05-24T09:54:28.260Z,4.20
2023-05-24T09:55:29.914Z,4.80
2023-05-24T09:56:33.302Z,4.60
2023-05-24T09:57:34.994Z,6.07
2023-05-24T09:58:36.924Z,4.70
2023-05-24T09:59:40.087Z,4.40
2023-05-24T10:00:42.625Z,4.97
2023-05-24T10:01:45.232Z,4.00
2023-05-24T10:02:53.519Z,5.23
2023-05-24T10:03:56.366Z,5.00
2023-05-24T10:05:00.399Z,4.50
2023-05-24T10:06:04.980Z,5.17
2023-05-24T10:07:07.247Z,4.13
2023-05-24T10:08:10.052Z,4.30
2023-05-24T10:09:14.038Z,6.17
2023-05-24T10:10:16.964Z,4.87
2023-05-24T10:11:19.009Z,4.90
2023-05-24T10:12:23.378Z,4.13
2023-05-24T10:13:25.289Z,3.90
2023-05-24T10:14:28.088Z,4.53
2023-05-24T10:15:30.813Z,4.90
2023-05-24T10:16:32.827Z,4.60
2023-05-24T10:17:34.520Z,4.50
2023-05-24T10:18:36.290Z,4.17
2023-05-24T10:19:37.943Z,3.77
2023-05-24T10:20:41.571Z,4.03
2023-05-24T10:21:43.983Z,4.00
2023-05-24T10:22:48.187Z,4.60
2023-05-24T10:23:51.465Z,4.53
2023-05-24T10:24:56.366Z,4.40
2023-05-24T10:26:14.176Z,3.53
2023-05-24T10:27:19.326Z,5.00
2023-05-24T10:28:22.805Z,3.90
2023-05-24T10:29:29.924Z,4.17
2023-05-24T10:30:34.724Z,3.57
2023-05-24T10:31:39.520Z,4.10
2023-05-24T10:32:42.623Z,4.33
2023-05-24T10:33:45.004Z,4.17
2023-05-24T10:34:46.931Z,4.90
2023-05-24T10:35:49.022Z,4.47
2023-05-24T10:36:51.416Z,4.77
2023-05-24T10:37:54.540Z,4.63
2023-05-24T10:38:56.238Z,4.37
2023-05-24T10:39:58.838Z,4.13
2023-05-24T10:41:00.505Z,3.37
2023-05-24T10:42:03.241Z,3.57
2023-05-24T10:43:06.754Z,4.70
2023-05-24T10:44:13.236Z,3.80
2023-05-24T10:45:31.604Z,4.27
2023-05-24T10:46:33.472Z,4.27
2023-05-24T10:47:39.040Z,3.90
2023-05-24T10:48:41.414Z,3.30
2023-05-24T10:49:54.611Z,4.60
2023-05-24T10:50:56.489Z,4.83
2023-05-24T10:52:02.724Z,4.50
2023-05-24T10:53:14.067Z,4.37
2023-05-24T10:54:19.370Z,3.50
2023-05-24T10:55:21.392Z,3.50
2023-05-24T10:56:23.844Z,4.40
2023-05-24T10:57:27.521Z,4.27
2023-05-24T10:59:08.818Z,4.13
2023-05-24T11:01:32.028Z,3.80
2023-05-24T11:02:35.918Z,3.70
2023-05-24T11:03:40.732Z,3.87
2023-05-24T11:04:43.675Z,3.60
2023-05-24T11:05:50.896Z,3.67
2023-05-24T11:06:55.941Z,4.07
2023-05-24T11:08:01.312Z,3.87
2023-05-24T11:09:03.511Z,3.27
2023-05-24T11:10:09.595Z,4.20
2023-05-24T11:12:17.924Z,3.67
2023-05-24T11:13:20.915Z,4.00
2023-05-24T11:14:27.715Z,3.43
2023-05-24T11:15:29.901Z,3.97
2023-05-24T11:16:39.411Z,3.57
2023-05-24T11:18:00.747Z,4.23
2023-05-24T11:19:33.014Z,3.40
2023-05-24T11:20:34.885Z,3.43
2023-05-24T11:21:37.368Z,2.80
2023-05-24T11:22:40.249Z,3.27
2023-05-24T11:23:42.604Z,3.80
2023-05-24T11:24:45.143Z,3.20
2023-05-24T11:25:47.252Z,2.83
2023-05-24T11:26:49.924Z,3.60
2023-05-24T11:27:51.803Z,3.67
2023-05-24T11:28:53.595Z,3.23
2023-05-24T11:29:58.017Z,4.07
2023-05-24T11:31:07.957Z,5.57
2023-05-24T11:32:10.271Z,6.93
2023-05-24T11:33:30.078Z,3.53
2023-05-24T11:34:32.228Z,3.63
2023-05-24T11:35:34.204Z,3.43
2023-05-24T11:36:36.556Z,3.67
2023-05-24T11:37:46.490Z,3.50
2023-05-24T11:38:49.141Z,3.47
2023-05-24T11:39:52.722Z,3.17
2023-05-24T11:40:54.817Z,3.13
2023-05-24T11:41:56.982Z,4.07
2023-05-24T11:42:58.619Z,3.57
2023-05-24T11:44:00.222Z,7.37
2023-05-24T11:45:01.900Z,3.47
2023-05-24T11:46:03.481Z,3.73
2023-05-24T11:47:06.292Z,8.17
2023-05-24T11:48:07.970Z,3.93
2023-05-24T11:49:12.811Z,4.00
2023-05-24T11:50:25.268Z,5.00
2023-05-24T11:51:29.128Z,3.43
2023-05-24T11:52:30.896Z,3.90
2023-05-24T11:53:32.457Z,3.40
2023-05-24T11:54:35.616Z,2.93
2023-05-24T11:55:37.584Z,3.20
2023-05-24T11:56:39.194Z,3.50
2023-05-24T11:57:42.757Z,2.97
2023-05-24T11:58:48.077Z,2.80
2023-05-24T11:59:49.660Z,2.80
2023-05-24T12:00:51.704Z,3.40
2023-05-24T12:02:00.766Z,3.10
2023-05-24T12:03:07.434Z,3.30
2023-05-24T12:04:10.239Z,2.90
2023-05-24T12:05:14.288Z,2.70
2023-05-24T12:06:15.857Z,3.70
2023-05-24T12:07:17.932Z,2.97
2023-05-24T12:08:20.445Z,3.10
2023-05-24T12:09:23.033Z,2.70
2023-05-24T12:10:24.980Z,3.70
2023-05-24T12:11:26.564Z,4.07
2023-05-24T12:12:34.144Z,3.47
2023-05-24T12:13:43.938Z,3.67
2023-05-24T12:14:45.562Z,2.77
2023-05-24T12:15:49.333Z,2.93
2023-05-24T12:16:54.268Z,3.40
2023-05-24T12:17:56.153Z,3.50
2023-05-24T12:19:05.321Z,3.33
2023-05-24T12:20:10.412Z,3.20
2023-05-24T12:21:12.289Z,3.80
2023-05-24T12:22:14.098Z,2.93
2023-05-24T12:23:17.047Z,3.50
2023-05-24T12:24:21.520Z,3.40
2023-05-24T12:25:23.936Z,3.97
2023-05-24T12:26:26.256Z,3.00
2023-05-24T12:27:28.032Z,3.17
2023-05-24T12:28:36.135Z,3.10
2023-05-24T12:29:39.753Z,3.40
2023-05-24T12:30:43.556Z,3.40
2023-05-24T12:31:47.581Z,3.40
2023-05-24T12:32:49.393Z,3.47
2023-05-24T12:33:54.291Z,2.40
2023-05-24T12:34:56.213Z,3.60
2023-05-24T12:35:58.779Z,2.93
2023-05-24T12:37:00.709Z,3.07
2023-05-24T12:38:02.425Z,2.47
2023-05-24T12:39:23.132Z,3.23
2023-05-24T12:40:25.167Z,3.10
2023-05-24T12:41:28.728Z,2.83
2023-05-24T12:42:30.269Z,3.53
2023-05-24T12:43:32.336Z,4.20
2023-05-24T12:44:35.287Z,3.30
2023-05-24T12:45:37.287Z,3.20
2023-05-24T12:46:39.104Z,3.30
2023-05-24T12:47:41.078Z,4.47
2023-05-24T12:48:43.098Z,3.03
2023-05-24T12:49:44.666Z,3.60
2023-05-24T12:50:46.292Z,3.93
2023-05-24T12:51:49.367Z,3.00
2023-05-24T12:52:54.730Z,3.07
2023-05-24T12:53:56.949Z,3.47
2023-05-24T12:54:58.589Z,3.20
2023-05-24T12:56:00.762Z,3.87
2023-05-24T12:57:03.403Z,3.40
2023-05-24T12:58:08.136Z,3.13
2023-05-24T12:59:09.833Z,2.63
2023-05-24T13:00:11.659Z,2.93
2023-05-24T13:01:13.228Z,2.93
2023-05-24T13:02:14.951Z,3.23
2023-05-24T13:03:16.695Z,3.90
2023-05-24T13:04:19.582Z,3.63
2023-05-24T13:05:21.688Z,3.40
2023-05-24T13:06:23.388Z,3.07
2023-05-24T13:07:25.490Z,3.90
2023-05-24T13:08:29.566Z,2.70
2023-05-24T13:09:31.194Z,3.30
2023-05-24T13:10:32.767Z,3.80
2023-05-24T13:11:34.383Z,3.77
2023-05-24T13:12:36.909Z,3.23
2023-05-24T13:13:38.584Z,3.90
2023-05-24T13:14:40.334Z,3.13
2023-05-24T13:15:44.807Z,3.20
2023-05-24T13:16:46.533Z,3.57
2023-05-24T13:17:48.192Z,3.77
2023-05-24T13:18:50.600Z,3.83
2023-05-24T13:19:52.242Z,2.87
2023-05-24T13:20:53.810Z,3.40
2023-05-24T13:21:55.601Z,2.60
2023-05-24T13:22:57.120Z,3.57
2023-05-24T13:23:58.940Z,3.53
2023-05-24T13:25:00.583Z,2.53
2023-05-24T13:26:02.875Z,3.50
2023-05-24T13:27:04.938Z,3.40
2023-05-24T13:28:07.055Z,3.53
2023-05-24T13:29:32.356Z,3.47
2023-05-24T13:30:30.257Z,3.10
2023-05-24T13:31:31.972Z,3.53
2023-05-24T13:32:33.827Z,3.53
2023-05-24T13:33:35.631Z,4.20
2023-05-24T13:34:37.204Z,3.90
2023-05-24T13:35:40.035Z,4.30
2023-05-24T13:36:42.943Z,3.60
2023-05-24T13:37:44.513Z,4.10
2023-05-24T13:38:46.196Z,3.40
2023-05-24T13:39:47.991Z,3.50
2023-05-24T13:40:50.248Z,3.37
2023-05-24T13:41:52.260Z,3.87
2023-05-24T13:42:55.593Z,3.90
2023-05-24T13:43:57.231Z,3.30
2023-05-24T13:44:59.571Z,4.27
2023-05-24T13:46:01.278Z,4.10
2023-05-24T13:47:03.176Z,4.03
2023-05-24T13:48:05.469Z,4.30
2023-05-24T13:49:07.733Z,4.40
2023-05-24T13:50:10.060Z,4.10
2023-05-24T13:51:11.901Z,3.37
2023-05-24T13:52:13.525Z,3.33
2023-05-24T13:53:15.277Z,3.50
2023-05-24T13:54:17.637Z,4.30
2023-05-24T13:55:19.186Z,3.90
2023-05-24T13:56:22.497Z,3.77
2023-05-24T13:57:27.752Z,3.63
2023-05-24T13:58:33.024Z,3.80
2023-05-24T13:59:34.629Z,4.13
2023-05-24T14:00:36.501Z,3.50
2023-05-24T14:01:38.344Z,3.87
2023-05-24T14:02:41.656Z,3.23